KOPF/OPF METAR and TAF weather

Enter ICAO airport designator
Station Type Date Time Source
KOPF METAR 2022/01/25 04:53 UTC NOAA

KOPF 250453Z AUTO 30003KT 10SM CLR 12/04 A3003 RMK AO2 SLP169 T01220039 401780072


Station Type Date Time Source
KOPF Decoded METAR 2022/01/25 04:53 UTC NOAA

MIAMI OPA LOCKA AIRPORT, FL, United States (KOPF) 25-54N 80-17W 16M
Jan 24, 2022 - 11:53 PM EST / 2022.01.25 0453 UTC
Wind: from the WNW (300 degrees) at 3 MPH (3 KT):0
Visibility: 10 mile(s):0
Sky conditions: clear
Temperature: 54.0 F (12.2 C)
Dew Point: 39.0 F (3.9 C)
Relative Humidity: 56%
Pressure (altimeter): 30.03 in. Hg (1016 hPa)
ob: KOPF 250453Z AUTO 30003KT 10SM CLR 12/04 A3003 RMK AO2 SLP169 T01220039 401780072
cycle: 5

Station Type Date Time Source
KOPF TAF 2022/01/25 03:42 UTC NOAA

TAF
AMD KOPF 250240Z 2503/2524 VRB03KT P6SM FEW030 SCT250
FM251700 13006KT P6SM SCT030 BKN050

Example: see airport list